Torrelavega, Spain
Current Conditions -  °F | °C
As of 11:00 PM on Friday 28 Nov 2014 (Local Time) from LEXJ Reporting Station
Light Rain Light Rain  
Wind Chill: 59°   Ceiling: 8000
Heat Index: 59°   Visibility: 6mi
Dew Point: 52°   Wind: 0mph
Humidity: 77%   Direction: NA
Pressure: 29.32"   Gusts: NA
Location:  43.35°N, 4.05°W
Report Text: LEXJ 282200Z 00000KT 9999 -RA BKN080 15/11 Q0993
Loading
Personal Weather Stations






























Interactive Weather Map New forecast layout! Learn more

10-Day Weather Forecast

Advertisements
Track Severe Weather on mobile